| time (UTC) | temp F | wind direction | speed MPH | gust MPH | rain 1hr in | rain 24hr in | rain mn in | humidity % | barometer mb |
| 20260905081549 | 65 | 0.0 | 2.0 | 0.00 | 0.01 | 0.01 | 1020.8 | ||
| 20260905080545 | 65 | 180 | 2.0 | 4.0 | 0.00 | 0.01 | 0.01 | 1020.8 | |
| 20260905075541 | 65 | 238 | 1.0 | 6.0 | 0.00 | 0.01 | 0.01 | 1020.7 | |
| 20260905074537 | 65 | 180 | 0.0 | 6.0 | 0.00 | 0.01 | 0.01 | 1020.6 | |
| 20260905073534 | 65 | 0.0 | 2.0 | 0.00 | 0.01 | 0.01 | 1020.5 | ||
| 20260905072530 | 65 | 0.0 | 0.0 | 0.00 | 0.01 | 0.01 | 1020.4 | ||
| 20260905071526 | 64 | 0.0 | 2.0 | 0.00 | 0.01 | 0.01 | 1020.4 | ||
| 20260905070522 | 64 | 0.0 | 0.0 | 0.00 | 0.01 | 0.01 | 1020.4 | ||
| 20260905065518 | 63 | 0.0 | 0.0 | 0.00 | 0.01 | 0.01 | 1020.4 | ||
| 20260905064615 | 62 | 225 | 0.0 | 3.0 | 0.00 | 0.01 | 0.01 | 1020.4 | |
| 20260905063611 | 62 | 225 | 0.0 | 2.0 | 0.00 | 0.01 | 0.01 | 1020.2 | |
| 20260905062607 | 62 | 243 | 2.0 | 4.0 | 0.00 | 0.01 | 0.01 | 1020.1 | |
| 20260905061603 | 61 | 215 | 1.0 | 3.0 | 0.00 | 0.01 | 0.01 | 1019.8 | |
| 20260905060600 | 61 | 270 | 2.0 | 4.0 | 0.00 | 0.01 | 0.01 | 1019.8 | |
| 20260905055556 | 60 | 234 | 2.0 | 4.0 | 0.00 | 0.01 | 0.01 | 1019.7 | |
| 20260905054552 | 60 | 0.0 | 2.0 | 0.00 | 0.01 | 0.01 | 1019.6 | ||
| 20260905053548 | 60 | 0.0 | 2.0 | 0.00 | 0.01 | 0.01 | 1019.4 | ||
| 20260905052544 | 60 | 180 | 0.0 | 4.0 | 0.00 | 0.01 | 0.01 | 1019.3 | |
| 20260905051540 | 60 | 225 | 1.0 | 4.0 | 0.00 | 0.01 | 0.01 | 1019.3 | |
| 20260905050537 | 60 | 0.0 | 0.0 | 0.00 | 0.01 | 0.01 | 1019.1 | ||
| 20260905045533 | 59 | 222 | 1.0 | 4.0 | 0.00 | 0.01 | 0.01 | 1019.1 | |
| 20260905044529 | 59 | 0.0 | 2.0 | 0.00 | 0.01 | 0.01 | 1019.1 | ||
| 20260905043526 | 59 | 0.0 | 0.0 | 0.00 | 0.01 | 0.01 | 1018.7 | ||
| 20260905042522 | 59 | 0.0 | 0.0 | 0.00 | 0.01 | 0.01 | 1018.5 | ||
| 20260905041518 | 58 | 0.0 | 1.0 | 0.00 | 0.01 | 0.01 | 1018.4 | ||
| 20260905040615 | 58 | 0.0 | 0.0 | 0.00 | 0.01 | 0.01 | 1018.3 | ||
| 20260905035611 | 58 | 0.0 | 2.0 | 0.00 | 0.01 | 0.01 | 1018.3 | ||
| 20260905034608 | 58 | 225 | 0.0 | 2.0 | 0.00 | 0.01 | 0.01 | 1018.1 | |
| 20260905033604 | 58 | 0.0 | 2.0 | 0.00 | 0.01 | 0.01 | 1018.0 | ||
| 20260905032600 | 58 | 0.0 | 2.0 | 0.00 | 0.01 | 0.01 | 1018.0 | ||
| 20260905031555 | 58 | 0.0 | 0.0 | 0.00 | 0.01 | 0.01 | 1017.8 | ||
| 20260905030552 | 58 | 0.0 | 0.0 | 0.00 | 0.01 | 0.01 | 1017.8 | ||
| 20260905025548 | 58 | 0.0 | 2.0 | 0.00 | 0.01 | 0.01 | 1017.8 | ||
| 20260905024544 | 58 | 225 | 0.0 | 3.0 | 0.00 | 0.01 | 0.01 | 1017.8 | |
| 20260905023541 | 59 | 0.0 | 0.0 | 0.00 | 0.01 | 0.01 | 1017.7 | ||
| 20260905022537 | 59 | 0.0 | 3.0 | 0.00 | 0.01 | 0.01 | 1017.7 | ||
| 20260905021533 | 59 | 0.0 | 1.0 | 0.00 | 0.01 | 0.01 | 1017.4 | ||
| 20260905020530 | 59 | 0.0 | 0.0 | 0.00 | 0.01 | 0.01 | 1017.2 | ||
| 20260905015526 | 59 | 0.0 | 0.0 | 0.00 | 0.01 | 0.01 | 1017.4 | ||
| 20260905014523 | 59 | 0.0 | 0.0 | 0.01 | 0.01 | 0.01 | 1017.5 | ||
| 20260905013519 | 59 | 0.0 | 0.0 | 0.01 | 0.01 | 0.01 | 1017.4 | ||
| 20260905012615 | 60 | 0.0 | 1.0 | 0.01 | 0.01 | 0.01 | 1017.2 | ||
| 20260905011611 | 60 | 0.0 | 1.0 | 0.01 | 0.01 | 0.01 | 1017.5 | ||
| 20260905010607 | 61 | 0.0 | 0.0 | 0.01 | 0.01 | 0.01 | 1017.5 | ||
| 20260905005604 | 62 | 0.0 | 2.0 | 0.01 | 0.01 | 0.01 | 1017.1 | ||
| 20260905004559 | 63 | 270 | 0.0 | 2.0 | 0.00 | 0.00 | 0.00 | 1017.0 | |
| 20260905003556 | 64 | 0.0 | 2.0 | 0.00 | 0.00 | 0.00 | 1016.8 | ||
| 20260905002552 | 64 | 0.0 | 3.0 | 0.00 | 0.00 | 0.00 | 1016.6 | ||
| 20260905001548 | 64 | 0 | 0.0 | 4.0 | 0.00 | 0.00 | 0.00 | 1016.3 | |
| 20260905000545 | 64 | 0.0 | 1.0 | 0.00 | 0.00 | 0.00 | 1016.4 | ||
| 20260904235540 | 64 | 270 | 0.0 | 4.0 | 0.00 | 0.00 | 0.00 | 1016.5 | |
| 20260904234536 | 64 | 0.0 | 0.0 | 0.00 | 0.00 | 0.00 | 1016.5 | ||
| 20260904233533 | 64 | 0.0 | 2.0 | 0.00 | 0.00 | 0.00 | 1016.2 | ||
| 20260904232559 | 64 | 0.0 | 0.0 | 0.00 | 0.00 | 0.00 | 1016.3 | ||
| 20260904231556 | 65 | 0.0 | 0.0 | 0.00 | 0.00 | 0.00 | 1016.3 | ||
| 20260904230552 | 65 | 180 | 1.0 | 3.0 | 0.00 | 0.00 | 0.00 | 1016.3 | |
| 20260904225548 | 65 | 359 | 0.0 | 3.0 | 0.00 | 0.00 | 0.00 | 1016.0 | |
| 20260904224544 | 66 | 47 | 2.0 | 8.0 | 0.00 | 0.00 | 0.00 | 1016.1 | |
| 20260904223540 | 66 | 350 | 1.0 | 6.0 | 0.00 | 0.00 | 0.00 | 1016.0 | |
| 20260904222536 | 67 | 14 | 1.0 | 4.0 | 0.00 | 0.00 | 0.00 | 1016.0 | |
| 20260904221532 | 68 | 358 | 2.0 | 9.0 | 0.00 | 0.00 | 0.00 | 1015.9 | |
| 20260904220559 | 68 | 45 | 2.0 | 5.0 | 0.00 | 0.00 | 0.00 | 1015.5 | |
| 20260904215555 | 69 | 84 | 2.0 | 9.0 | 0.00 | 0.00 | 0.00 | 1015.5 | |
| 20260904214552 | 69 | 341 | 4.0 | 12.0 | 0.00 | 0.00 | 0.00 | 1015.3 | |
| 20260904213548 | 69 | 343 | 2.0 | 7.0 | 0.00 | 0.00 | 0.00 | 1015.1 | |
| 20260904212544 | 70 | 30 | 4.0 | 9.0 | 0.00 | 0.00 | 0.00 | 1014.5 | |
| 20260904211539 | 71 | 332 | 5.0 | 15.0 | 0.00 | 0.00 | 0.00 | 1014.1 | |
| 20260904210535 | 76 | 0 | 5.0 | 10.0 | 0.00 | 0.00 | 0.00 | 1013.7 | |
| 20260904205531 | 77 | 209 | 3.0 | 11.0 | 0.00 | 0.00 | 0.00 | 1012.9 | |
| 20260904204528 | 76 | 298 | 1.0 | 6.0 | 0.00 | 0.00 | 0.00 | 1012.6 | |
| 20260904203524 | 77 | 315 | 0.0 | 4.0 | 0.00 | 0.00 | 0.00 | 1012.4 | |
| 20260904202519 | 77 | 302 | 1.0 | 5.0 | 0.00 | 0.00 | 0.00 | 1012.4 | |
| 20260904201516 | 77 | 253 | 1.0 | 4.0 | 0.00 | 0.00 | 0.00 | 1012.3 | |
| 20260904200613 | 77 | 225 | 2.0 | 4.0 | 0.00 | 0.00 | 0.00 | 1012.3 | |
| 20260904195609 | 77 | 204 | 1.0 | 4.0 | 0.00 | 0.00 | 0.00 | 1012.2 | |
| 20260904194605 | 78 | 263 | 1.0 | 5.0 | 0.00 | 0.00 | 0.00 | 1012.2 | |
| 20260904193602 | 78 | 298 | 0.0 | 6.0 | 0.00 | 0.00 | 0.00 | 1012.1 | |
| 20260904192557 | 78 | 0.0 | 2.0 | 0.00 | 0.00 | 0.00 | 1012.0 | ||
| 20260904191554 | 78 | 45 | 0.0 | 5.0 | 0.00 | 0.00 | 0.00 | 1011.9 | |
| 20260904190550 | 78 | 0.0 | 2.0 | 0.00 | 0.00 | 0.00 | 1011.7 | ||
| 20260904185546 | 78 | 209 | 2.0 | 7.0 | 0.00 | 0.00 | 0.00 | 1011.5 | |
| 20260904184542 | 79 | 204 | 1.0 | 4.0 | 0.00 | 0.00 | 0.00 | 1011.4 | |
| 20260904183539 | 79 | 254 | 1.0 | 4.0 | 0.00 | 0.00 | 0.00 | 1011.5 | |
| 20260904182535 | 79 | 243 | 1.0 | 4.0 | 0.00 | 0.00 | 0.00 | 1011.5 | |
| 20260904181531 | 79 | 270 | 0.0 | 4.0 | 0.00 | 0.00 | 0.00 | 1011.4 | |
| 20260904180527 | 80 | 0.0 | 4.0 | 0.00 | 0.00 | 0.00 | 1011.3 | ||
| 20260904175524 | 80 | 23 | 0.0 | 5.0 | 0.00 | 0.00 | 0.00 | 1011.3 | |
| 20260904174520 | 81 | 255 | 2.0 | 7.0 | 0.00 | 0.00 | 0.00 | 1011.1 | |
| 20260904173516 | 81 | 315 | 0.0 | 4.0 | 0.00 | 0.00 | 0.00 | 1011.1 | |
| 20260904172612 | 82 | 303 | 1.0 | 7.0 | 0.00 | 0.00 | 0.00 | 1011.0 | |
| 20260904171608 | 82 | 221 | 1.0 | 9.0 | 0.00 | 0.00 | 0.00 | 1011.1 | |
| 20260904170604 | 82 | 315 | 1.0 | 4.0 | 0.00 | 0.00 | 0.00 | 1011.1 | |
| 20260904165600 | 82 | 158 | 0.0 | 4.0 | 0.00 | 0.00 | 0.00 | 1011.1 | |
| 20260904164556 | 84 | 268 | 1.0 | 5.0 | 0.00 | 0.00 | 0.00 | 1011.1 | |
| 20260904163553 | 85 | 305 | 1.0 | 8.0 | 0.00 | 0.00 | 0.00 | 1011.2 | |
| 20260904162549 | 87 | 186 | 2.0 | 8.0 | 0.00 | 0.00 | 0.00 | 1011.2 | |
| 20260904161545 | 87 | 224 | 3.0 | 11.0 | 0.00 | 0.00 | 0.00 | 1011.3 | |
| 20260904160542 | 86 | 180 | 6.0 | 11.0 | 0.00 | 0.00 | 0.00 | 1011.4 | |
| 20260904155538 | 85 | 218 | 2.0 | 11.0 | 0.00 | 0.00 | 0.00 | 1011.2 | |
| 20260904154534 | 84 | 265 | 2.0 | 10.0 | 0.00 | 0.00 | 0.00 | 1011.2 | |
| 20260904153600 | 84 | 244 | 3.0 | 7.0 | 0.00 | 0.00 | 0.00 | 1011.3 | |
| 20260904152556 | 86 | 176 | 3.0 | 11.0 | 0.00 | 0.00 | 0.00 | 1011.2 | |
| 20260904151552 | 86 | 312 | 3.0 | 10.0 | 0.00 | 0.00 | 0.00 | 1011.2 | |
| 20260904150549 | 87 | 225 | 3.0 | 8.0 | 0.00 | 0.00 | 0.00 | 1011.2 | |
| 20260904145546 | 86 | 293 | 4.0 | 8.0 | 0.00 | 0.00 | 0.00 | 1011.2 | |
| 20260904144542 | 85 | 311 | 3.0 | 8.0 | 0.00 | 0.00 | 0.00 | 1011.3 | |
| 20260904143538 | 87 | 255 | 3.0 | 8.0 | 0.00 | 0.00 | 0.00 | 1011.4 | |
| 20260904142534 | 86 | 275 | 5.0 | 13.0 | 0.00 | 0.00 | 0.00 | 1011.6 | |
| 20260904141530 | 84 | 302 | 6.0 | 14.0 | 0.00 | 0.00 | 0.00 | 1011.6 | |
| 20260904140526 | 84 | 225 | 7.0 | 11.0 | 0.00 | 0.00 | 0.00 | 1011.7 | |
| 20260904135522 | 86 | 309 | 3.0 | 11.0 | 0.00 | 0.00 | 0.00 | 1011.8 | |
| 20260904134519 | 86 | 278 | 3.0 | 11.0 | 0.00 | 0.00 | 0.00 | 1011.8 | |
| 20260904133615 | 86 | 262 | 5.0 | 14.0 | 0.00 | 0.01 | 0.00 | 1011.8 | |
| 20260904132612 | 86 | 273 | 2.0 | 8.0 | 0.00 | 0.02 | 0.00 | 1011.9 | |
| 20260904131608 | 87 | 283 | 3.0 | 11.0 | 0.00 | 0.04 | 0.00 | 1012.1 | |
| 20260904130604 | 86 | 113 | 1.0 | 3.0 | 0.00 | 0.06 | 0.00 | 1012.2 | |
| 20260904125559 | 84 | 264 | 2.0 | 9.0 | 0.00 | 0.07 | 0.00 | 1012.4 | |
| 20260904124555 | 82 | 200 | 2.0 | 8.0 | 0.00 | 0.09 | 0.00 | 1012.9 | |
| 20260904123552 | 84 | 236 | 2.0 | 8.0 | 0.00 | 0.11 | 0.00 | 1013.2 | |
| 20260904122548 | 82 | 255 | 3.0 | 10.0 | 0.00 | 0.12 | 0.00 | 1013.3 | |
| 20260904121544 | 82 | 226 | 2.0 | 7.0 | 0.00 | 0.12 | 0.00 | 1013.6 | |
| 20260904120541 | 81 | 225 | 4.0 | 10.0 | 0.00 | 0.12 | 0.00 | 1013.8 | |
| 20260904115537 | 80 | 204 | 3.0 | 11.0 | 0.00 | 0.12 | 0.00 | 1013.9 | |
| 20260904114533 | 79 | 252 | 2.0 | 7.0 | 0.00 | 0.13 | 0.00 | 1014.1 | |
| 20260904113530 | 79 | 210 | 2.0 | 5.0 | 0.00 | 0.13 | 0.00 | 1014.3 | |
| 20260904112525 | 79 | 276 | 3.0 | 8.0 | 0.00 | 0.13 | 0.00 | 1014.4 | |
| 20260904111522 | 80 | 257 | 2.0 | 10.0 | 0.00 | 0.13 | 0.00 | 1014.5 | |
| 20260904110518 | 79 | 225 | 1.0 | 4.0 | 0.00 | 0.13 | 0.00 | 1014.6 | |
| 20260904105614 | 78 | 258 | 2.0 | 9.0 | 0.00 | 0.13 | 0.00 | 1014.6 | |
| 20260904104611 | 78 | 232 | 5.0 | 11.0 | 0.00 | 0.13 | 0.00 | 1014.7 | |
| 20260904103606 | 78 | 198 | 4.0 | 9.0 | 0.00 | 0.13 | 0.00 | 1014.9 | |
| 20260904102603 | 77 | 158 | 2.0 | 9.0 | 0.00 | 0.13 | 0.00 | 1015.1 | |
| 20260904101559 | 77 | 246 | 3.0 | 8.0 | 0.00 | 0.13 | 0.00 | 1015.0 | |
| 20260904100555 | 78 | 180 | 3.0 | 5.0 | 0.00 | 0.13 | 0.00 | 1015.2 | |
| 20260904095551 | 77 | 173 | 5.0 | 11.0 | 0.00 | 0.13 | 0.00 | 1015.3 | |
| 20260904094547 | 76 | 206 | 4.0 | 12.0 | 0.00 | 0.13 | 0.00 | 1015.5 | |
| 20260904093543 | 75 | 199 | 2.0 | 8.0 | 0.00 | 0.13 | 0.00 | 1015.8 | |
| 20260904092540 | 75 | 212 | 1.0 | 5.0 | 0.00 | 0.13 | 0.00 | 1015.9 | |
| 20260904091537 | 75 | 216 | 1.0 | 4.0 | 0.00 | 0.13 | 0.00 | 1016.1 | |
| 20260904090532 | 74 | 225 | 2.0 | 4.0 | 0.00 | 0.13 | 0.00 | 1016.3 | |
| 20260904085529 | 74 | 113 | 0.0 | 4.0 | 0.00 | 0.13 | 0.00 | 1016.4 | |
| 20260904084525 | 73 | 194 | 1.0 | 6.0 | 0.00 | 0.13 | 0.00 | 1016.5 | |
| 20260904083522 | 72 | 215 | 1.0 | 5.0 | 0.00 | 0.13 | 0.00 | 1016.4 | |
| 20260904082517 | 71 | 189 | 1.0 | 4.0 | 0.00 | 0.13 | 0.00 | 1016.6 |